createdAt,value
2022-07-28T00:00:12.803Z,1.25
2022-07-28T00:02:40.089Z,1.27
2022-07-28T00:05:07.959Z,1.37
2022-07-28T00:07:35.254Z,1.35
2022-07-28T00:10:02.766Z,1.30
2022-07-28T00:12:30.170Z,1.20
2022-07-28T00:14:57.424Z,1.23
2022-07-28T00:17:25.010Z,1.40
2022-07-28T00:19:52.236Z,1.15
2022-07-28T00:22:19.454Z,1.20
2022-07-28T00:24:46.700Z,1.43
2022-07-28T00:27:19.212Z,1.23
2022-07-28T00:29:50.331Z,1.00
2022-07-28T00:32:19.181Z,1.10
2022-07-28T00:34:46.988Z,1.08
2022-07-28T00:37:15.056Z,1.17
2022-07-28T00:39:43.641Z,1.10
2022-07-28T00:42:11.199Z,1.02
2022-07-28T00:44:41.702Z,1.20
2022-07-28T00:47:09.197Z,1.02
2022-07-28T00:49:37.400Z,1.20
2022-07-28T00:52:07.488Z,1.00
2022-07-28T00:54:35.758Z,1.20
2022-07-28T00:57:03.046Z,1.50
2022-07-28T00:59:31.245Z,1.17
2022-07-28T01:02:02.111Z,1.00
2022-07-28T01:04:30.187Z,1.27
2022-07-28T01:07:25.830Z,1.10
2022-07-28T01:10:03.661Z,1.07
2022-07-28T01:12:44.746Z,1.02
2022-07-28T01:15:25.311Z,1.40
2022-07-28T01:18:11.467Z,1.15
2022-07-28T01:20:50.665Z,1.10
2022-07-28T01:23:32.963Z,1.30
2022-07-28T01:26:28.567Z,1.10
2022-07-28T01:29:21.393Z,1.20
2022-07-28T01:31:59.502Z,1.10
2022-07-28T01:34:39.999Z,1.00
2022-07-28T01:37:19.620Z,1.10
2022-07-28T01:39:51.235Z,1.25
2022-07-28T01:42:20.584Z,1.50
2022-07-28T01:44:50.297Z,1.10
2022-07-28T01:47:19.970Z,1.10
2022-07-28T01:49:50.615Z,1.30
2022-07-28T01:52:19.142Z,1.17
2022-07-28T01:54:47.973Z,1.25
2022-07-28T01:57:18.029Z,1.40
2022-07-28T01:59:46.506Z,1.20
2022-07-28T02:02:17.398Z,1.20
2022-07-28T02:04:47.576Z,1.10
2022-07-28T02:07:17.863Z,1.45
2022-07-28T02:09:47.121Z,1.30
2022-07-28T02:12:18.262Z,1.10
2022-07-28T02:14:50.230Z,1.20
2022-07-28T02:17:25.301Z,1.13
2022-07-28T02:19:53.468Z,1.20
2022-07-28T02:22:21.577Z,1.15
2022-07-28T02:24:49.494Z,1.10
2022-07-28T02:27:25.313Z,1.25
2022-07-28T02:30:09.749Z,1.20
2022-07-28T02:32:52.053Z,1.00
2022-07-28T02:35:37.635Z,1.30
2022-07-28T02:38:14.769Z,1.10
2022-07-28T02:40:44.881Z,1.20
2022-07-28T02:43:16.042Z,1.17
2022-07-28T02:45:47.327Z,1.30
2022-07-28T02:48:18.271Z,1.20
2022-07-28T02:50:46.426Z,1.10
2022-07-28T02:53:16.409Z,1.23
2022-07-28T02:55:47.141Z,1.00
2022-07-28T02:58:18.272Z,1.00
2022-07-28T03:00:46.177Z,1.15
2022-07-28T03:03:14.753Z,1.10
2022-07-28T03:05:42.659Z,1.10
2022-07-28T03:08:10.263Z,1.20
2022-07-28T03:10:38.137Z,1.40
2022-07-28T03:13:09.316Z,1.10
2022-07-28T03:15:39.539Z,1.27
2022-07-28T03:18:07.072Z,1.20
2022-07-28T03:20:34.796Z,1.20
2022-07-28T03:23:02.371Z,1.15
2022-07-28T03:25:43.314Z,1.30
2022-07-28T03:28:17.697Z,1.20
2022-07-28T03:30:50.325Z,1.30
2022-07-28T03:33:18.314Z,1.25
2022-07-28T03:35:50.165Z,1.20
2022-07-28T03:38:26.128Z,1.30
2022-07-28T03:40:55.670Z,1.20
2022-07-28T03:43:25.853Z,1.33
2022-07-28T03:45:53.111Z,1.30
2022-07-28T03:48:23.405Z,1.20
2022-07-28T03:50:50.674Z,1.23
2022-07-28T03:53:24.275Z,1.10
2022-07-28T03:55:51.772Z,1.53
2022-07-28T03:58:20.111Z,1.10
2022-07-28T04:00:48.402Z,1.52
2022-07-28T04:03:37.652Z,1.25
2022-07-28T04:06:04.104Z,1.23
2022-07-28T04:08:31.328Z,1.30
2022-07-28T04:10:58.510Z,1.30
2022-07-28T04:13:25.675Z,1.23
2022-07-28T04:15:52.894Z,1.23
2022-07-28T04:18:20.610Z,1.27
2022-07-28T04:20:47.849Z,1.30
2022-07-28T04:23:15.129Z,1.20
2022-07-28T04:25:42.396Z,1.10
2022-07-28T04:28:09.621Z,1.20
2022-07-28T04:30:36.879Z,1.42
2022-07-28T04:33:12.056Z,1.20
2022-07-28T04:35:39.353Z,1.30
2022-07-28T04:38:07.652Z,1.42
2022-07-28T04:40:34.927Z,1.30
2022-07-28T04:43:03.760Z,1.40
2022-07-28T04:45:31.062Z,1.60
2022-07-28T04:47:58.315Z,1.40
2022-07-28T04:50:25.780Z,1.40
2022-07-28T04:52:58.818Z,1.40
2022-07-28T04:55:26.430Z,1.40
2022-07-28T04:57:53.654Z,1.40
2022-07-28T05:00:22.949Z,1.47
2022-07-28T05:02:51.373Z,1.30
2022-07-28T05:05:18.589Z,1.37
2022-07-28T05:07:45.978Z,1.55
2022-07-28T05:10:13.478Z,1.40
2022-07-28T05:12:41.111Z,1.52
2022-07-28T05:15:09.426Z,1.58
2022-07-28T05:17:37.073Z,1.25
2022-07-28T05:20:05.883Z,1.30
2022-07-28T05:22:43.584Z,1.25
2022-07-28T05:25:18.759Z,1.37
2022-07-28T05:27:47.545Z,1.10
2022-07-28T05:30:16.733Z,1.38
2022-07-28T05:32:45.333Z,1.17
2022-07-28T05:35:12.769Z,1.35
2022-07-28T05:37:40.250Z,1.20
2022-07-28T05:40:13.828Z,1.60
2022-07-28T05:42:42.634Z,1.20
2022-07-28T05:45:16.072Z,1.50
2022-07-28T05:47:52.138Z,1.20
2022-07-28T05:50:21.883Z,1.33
2022-07-28T05:52:50.108Z,1.40
2022-07-28T05:55:18.255Z,1.30
2022-07-28T05:57:45.490Z,1.23
2022-07-28T06:00:15.554Z,1.25
2022-07-28T06:02:48.982Z,1.13
2022-07-28T06:05:22.608Z,1.20
2022-07-28T06:07:51.024Z,1.40
2022-07-28T06:10:20.922Z,1.23
2022-07-28T06:12:55.291Z,1.38
2022-07-28T06:15:25.785Z,1.30
2022-07-28T06:17:55.303Z,1.20
2022-07-28T06:20:23.870Z,1.52
2022-07-28T06:22:54.823Z,1.48
2022-07-28T06:25:25.037Z,1.48
2022-07-28T06:27:54.498Z,1.27
2022-07-28T06:30:22.415Z,1.60
2022-07-28T06:32:50.309Z,1.33
2022-07-28T06:35:18.591Z,1.50
2022-07-28T06:37:47.447Z,1.40
2022-07-28T06:40:16.000Z,1.30
2022-07-28T06:42:43.892Z,1.38
2022-07-28T06:45:19.638Z,1.25
2022-07-28T06:47:53.174Z,1.30
2022-07-28T06:50:26.340Z,1.25
2022-07-28T06:52:59.058Z,1.52
2022-07-28T06:55:28.473Z,1.38
2022-07-28T06:58:04.907Z,1.40
2022-07-28T07:00:32.829Z,1.35
2022-07-28T07:03:00.974Z,1.30
2022-07-28T07:05:31.846Z,1.20
2022-07-28T07:07:59.236Z,1.45
2022-07-28T07:10:26.923Z,1.40
2022-07-28T07:12:54.103Z,1.50
2022-07-28T07:15:21.361Z,1.30
2022-07-28T07:17:48.610Z,1.55
2022-07-28T07:20:18.226Z,1.40
2022-07-28T07:22:46.886Z,1.30
2022-07-28T07:25:17.181Z,1.13
2022-07-28T07:27:45.214Z,1.50
2022-07-28T07:30:13.850Z,1.20
2022-07-28T07:32:42.431Z,1.30
2022-07-28T07:35:09.843Z,1.30
2022-07-28T07:37:37.015Z,1.30
2022-07-28T07:40:05.796Z,1.50
2022-07-28T07:42:33.033Z,1.30
2022-07-28T07:45:00.254Z,1.20
2022-07-28T07:47:27.643Z,1.17
2022-07-28T07:49:54.856Z,1.20
2022-07-28T07:52:22.077Z,1.20
2022-07-28T07:54:49.341Z,1.20
2022-07-28T07:57:16.649Z,1.27
2022-07-28T07:59:43.822Z,1.17
2022-07-28T08:02:11.099Z,1.25
2022-07-28T08:04:39.035Z,1.10
2022-07-28T08:07:08.747Z,1.15
2022-07-28T08:09:36.899Z,1.53
2022-07-28T08:12:04.411Z,1.30
2022-07-28T08:14:31.589Z,1.15
2022-07-28T08:16:59.455Z,1.20
2022-07-28T08:19:26.953Z,1.30
2022-07-28T08:21:55.403Z,1.40
2022-07-28T08:24:32.708Z,1.17
2022-07-28T08:27:03.025Z,1.20
2022-07-28T08:29:30.686Z,1.35
2022-07-28T08:31:58.016Z,1.00
2022-07-28T08:34:31.226Z,1.10
2022-07-28T08:37:05.733Z,0.90
2022-07-28T08:39:34.138Z,1.17
2022-07-28T08:42:15.035Z,0.93
2022-07-28T08:45:03.977Z,1.38
2022-07-28T08:47:45.913Z,1.10
2022-07-28T08:50:24.354Z,1.05
2022-07-28T08:52:53.299Z,1.10
2022-07-28T08:55:25.398Z,1.13
2022-07-28T08:58:00.505Z,1.20
2022-07-28T09:00:28.268Z,1.27
2022-07-28T09:02:55.997Z,1.30
2022-07-28T09:05:24.285Z,1.15
2022-07-28T09:07:55.189Z,1.20
2022-07-28T09:10:23.556Z,1.17
2022-07-28T09:12:51.117Z,1.10
2022-07-28T09:15:18.549Z,1.13
2022-07-28T09:17:45.893Z,1.20
2022-07-28T09:20:13.910Z,1.50
2022-07-28T09:23:01.580Z,1.23
2022-07-28T09:25:30.002Z,1.20
2022-07-28T09:28:09.325Z,1.30
2022-07-28T09:30:53.809Z,1.23
2022-07-28T09:33:42.842Z,1.20
2022-07-28T09:36:16.094Z,1.30
2022-07-28T09:38:44.362Z,1.20
2022-07-28T09:41:12.182Z,1.60
2022-07-28T09:43:43.403Z,1.58
2022-07-28T09:46:16.283Z,1.50
2022-07-28T09:48:49.914Z,1.38
2022-07-28T09:51:23.218Z,1.50
2022-07-28T09:53:51.566Z,1.67
2022-07-28T09:56:19.097Z,1.60
2022-07-28T09:58:59.174Z,1.70
2022-07-28T10:01:28.052Z,1.60
2022-07-28T10:04:03.108Z,1.87
2022-07-28T10:06:32.696Z,1.80
2022-07-28T10:09:07.990Z,1.80
2022-07-28T10:11:40.957Z,1.88
2022-07-28T10:14:08.929Z,1.90
2022-07-28T10:16:42.924Z,1.80
2022-07-28T10:19:10.494Z,1.50
2022-07-28T10:21:45.511Z,1.70
2022-07-28T10:24:21.038Z,1.50
2022-07-28T10:26:49.037Z,1.38
2022-07-28T10:29:18.207Z,1.40
2022-07-28T10:31:53.200Z,1.50
2022-07-28T10:34:24.677Z,1.58
2022-07-28T10:36:56.523Z,1.63
2022-07-28T10:39:28.378Z,1.50
2022-07-28T10:41:56.962Z,1.60
2022-07-28T10:44:25.022Z,1.80
2022-07-28T10:46:52.631Z,1.77
2022-07-28T10:49:21.109Z,1.60
2022-07-28T10:52:04.901Z,1.70
2022-07-28T10:54:45.057Z,1.80
2022-07-28T10:57:16.360Z,1.90
2022-07-28T11:00:24.441Z,1.87
2022-07-28T11:02:58.884Z,1.60
2022-07-28T11:05:32.128Z,1.40
2022-07-28T11:08:18.378Z,1.90
2022-07-28T11:10:50.557Z,1.70
2022-07-28T11:13:28.893Z,1.73
2022-07-28T11:16:17.208Z,1.90
2022-07-28T11:19:40.817Z,1.90
2022-07-28T11:22:15.041Z,1.80
2022-07-28T11:24:58.058Z,2.30
2022-07-28T11:27:40.955Z,1.98
2022-07-28T11:30:31.800Z,1.95
2022-07-28T11:33:00.273Z,2.00
2022-07-28T11:35:54.301Z,1.80
2022-07-28T11:38:23.666Z,2.50
2022-07-28T11:40:53.227Z,2.20
2022-07-28T11:43:36.965Z,2.50
2022-07-28T11:46:09.520Z,2.30
2022-07-28T11:48:40.148Z,2.47
2022-07-28T11:51:09.368Z,2.65
2022-07-28T11:53:40.044Z,2.30
2022-07-28T11:56:09.991Z,2.33
2022-07-28T11:58:38.157Z,2.75
2022-07-28T12:01:13.476Z,2.83
2022-07-28T12:03:50.461Z,2.75
2022-07-28T12:06:35.437Z,3.10
2022-07-28T12:09:11.011Z,2.90
2022-07-28T12:11:42.253Z,3.00
2022-07-28T12:14:10.604Z,3.40
2022-07-28T12:16:43.362Z,2.90
2022-07-28T12:19:11.721Z,2.67
2022-07-28T12:21:45.973Z,2.95
2022-07-28T12:24:21.454Z,2.55
2022-07-28T12:26:50.374Z,2.70
2022-07-28T12:29:20.377Z,3.30
2022-07-28T12:31:56.085Z,2.65
2022-07-28T12:34:28.936Z,2.45
2022-07-28T12:36:59.384Z,2.83
2022-07-28T12:39:26.793Z,3.47
2022-07-28T12:42:03.773Z,2.67
2022-07-28T12:44:37.914Z,3.00
2022-07-28T12:47:11.732Z,3.28
2022-07-28T12:49:40.705Z,3.10
2022-07-28T12:52:21.818Z,2.60
2022-07-28T12:54:55.017Z,2.83
2022-07-28T12:57:50.790Z,2.70
2022-07-28T13:00:21.942Z,3.10
2022-07-28T13:02:51.093Z,2.90
2022-07-28T13:05:57.045Z,3.65
2022-07-28T13:08:25.833Z,2.83
2022-07-28T13:10:57.491Z,3.15
2022-07-28T13:13:26.951Z,2.90
2022-07-28T13:16:13.157Z,2.85
2022-07-28T13:18:45.889Z,2.70
2022-07-28T13:21:13.331Z,3.13
2022-07-28T13:23:40.623Z,2.70
2022-07-28T13:26:08.018Z,3.00
2022-07-28T13:28:35.579Z,2.55
2022-07-28T13:31:02.837Z,2.47
2022-07-28T13:33:30.349Z,2.53
2022-07-28T13:35:58.611Z,2.30
2022-07-28T13:38:25.983Z,2.47
2022-07-28T13:40:53.216Z,2.10
2022-07-28T13:43:20.654Z,2.53
2022-07-28T13:45:47.996Z,2.60
2022-07-28T13:48:15.359Z,2.40
2022-07-28T13:50:42.528Z,2.38
2022-07-28T13:53:09.710Z,2.33
2022-07-28T13:55:37.278Z,2.22
2022-07-28T13:58:08.718Z,2.50
2022-07-28T14:00:36.312Z,2.80
2022-07-28T14:03:03.602Z,2.50
2022-07-28T14:05:37.791Z,3.00
2022-07-28T14:08:05.785Z,2.63
2022-07-28T14:10:33.035Z,2.30
2022-07-28T14:13:00.231Z,2.90
2022-07-28T14:15:27.663Z,2.90
2022-07-28T14:17:54.935Z,2.70
2022-07-28T14:20:22.163Z,2.47
2022-07-28T14:22:51.041Z,2.60
2022-07-28T14:25:20.813Z,2.88
2022-07-28T14:27:49.343Z,2.10
2022-07-28T14:30:16.772Z,2.67
2022-07-28T14:32:44.008Z,2.50
2022-07-28T14:35:11.230Z,2.40
2022-07-28T14:38:23.140Z,2.20
2022-07-28T14:40:25.780Z,2.55
2022-07-28T14:42:52.971Z,2.78
2022-07-28T14:45:20.374Z,2.30
2022-07-28T14:47:47.621Z,2.10
2022-07-28T14:50:14.843Z,2.30
2022-07-28T14:52:44.996Z,2.20
2022-07-28T14:55:13.026Z,2.15
2022-07-28T14:57:48.303Z,1.90
2022-07-28T15:00:20.354Z,1.85
2022-07-28T15:02:48.087Z,1.90
2022-07-28T15:05:15.417Z,2.03
2022-07-28T15:07:42.629Z,1.80
2022-07-28T15:10:10.522Z,1.92
2022-07-28T15:12:37.985Z,1.90
2022-07-28T15:15:05.768Z,1.90
2022-07-28T15:17:33.606Z,2.10
2022-07-28T15:20:01.249Z,2.10
2022-07-28T15:22:28.470Z,2.25
2022-07-28T15:24:55.674Z,1.92
2022-07-28T15:27:23.617Z,2.05
2022-07-28T15:29:52.343Z,2.00
2022-07-28T15:32:28.322Z,1.90
2022-07-28T15:34:55.814Z,1.90
2022-07-28T15:37:23.170Z,1.90
2022-07-28T15:39:50.470Z,2.10
2022-07-28T15:42:17.707Z,1.80
2022-07-28T15:44:44.888Z,1.70
2022-07-28T15:47:12.156Z,1.85
2022-07-28T15:49:39.421Z,1.90
2022-07-28T15:52:06.592Z,1.92
2022-07-28T15:54:33.827Z,1.52
2022-07-28T15:57:01.011Z,1.50
2022-07-28T15:59:50.260Z,1.60
2022-07-28T16:02:17.794Z,1.50
2022-07-28T16:04:49.066Z,1.40
2022-07-28T16:07:24.641Z,1.50
2022-07-28T16:09:54.079Z,1.40
2022-07-28T16:12:24.720Z,1.25
2022-07-28T16:14:55.557Z,1.17
2022-07-28T16:17:23.442Z,1.30
2022-07-28T16:19:54.027Z,1.00
2022-07-28T16:22:21.629Z,1.10
2022-07-28T16:24:50.613Z,1.20
2022-07-28T16:27:17.932Z,1.35
2022-07-28T16:29:45.487Z,1.10
2022-07-28T16:32:12.873Z,1.20
2022-07-28T16:34:40.193Z,1.20
2022-07-28T16:37:07.538Z,1.15
2022-07-28T16:39:35.366Z,1.13
2022-07-28T16:42:03.015Z,1.15
2022-07-28T16:44:30.945Z,1.08
2022-07-28T16:46:58.306Z,1.30
2022-07-28T16:49:25.783Z,1.15
2022-07-28T16:51:54.510Z,1.10
2022-07-28T16:54:22.054Z,1.20
2022-07-28T16:56:49.512Z,1.20
2022-07-28T16:59:17.092Z,1.10
2022-07-28T17:01:46.450Z,1.20
2022-07-28T17:04:15.826Z,1.00
2022-07-28T17:06:43.519Z,1.00
2022-07-28T17:09:13.053Z,1.10
2022-07-28T17:11:42.031Z,1.10
2022-07-28T17:14:11.085Z,1.20
2022-07-28T17:16:38.411Z,1.30
2022-07-28T17:19:05.623Z,1.00
2022-07-28T17:21:32.894Z,1.10
2022-07-28T17:24:02.858Z,1.00
2022-07-28T17:29:21.679Z,1.20
2022-07-28T17:31:49.686Z,1.23
2022-07-28T17:34:17.497Z,1.23
2022-07-28T17:36:45.625Z,1.40
2022-07-28T17:39:13.160Z,1.20
2022-07-28T17:41:40.334Z,1.10
2022-07-28T17:44:07.785Z,1.20
2022-07-28T17:46:35.074Z,1.20
2022-07-28T17:49:03.291Z,1.00
2022-07-28T17:51:30.787Z,1.35
2022-07-28T17:53:58.004Z,1.00
2022-07-28T17:56:25.985Z,0.93
2022-07-28T17:58:53.421Z,1.42
2022-07-28T18:01:20.731Z,1.20
2022-07-28T18:03:58.094Z,1.20
2022-07-28T18:06:35.817Z,1.30
2022-07-28T18:09:07.168Z,1.00
2022-07-28T18:11:37.546Z,1.27
2022-07-28T18:14:22.768Z,1.10
2022-07-28T18:16:49.972Z,1.10
2022-07-28T18:19:17.119Z,1.10
2022-07-28T18:21:44.279Z,1.20
2022-07-28T18:24:11.644Z,1.17
2022-07-28T18:26:41.709Z,1.17
2022-07-28T18:29:09.007Z,1.17
2022-07-28T18:31:41.262Z,1.40
2022-07-28T18:34:13.365Z,1.17
2022-07-28T18:36:40.826Z,1.10
2022-07-28T18:39:08.508Z,0.97
2022-07-28T18:41:47.003Z,1.10
2022-07-28T18:44:19.450Z,1.25
2022-07-28T18:46:47.481Z,1.10
2022-07-28T18:49:15.721Z,1.20
2022-07-28T18:51:45.112Z,1.10
2022-07-28T18:54:18.653Z,1.00
2022-07-28T18:56:47.448Z,1.10
2022-07-28T18:59:14.982Z,1.30
2022-07-28T19:01:42.273Z,1.15
2022-07-28T19:04:09.555Z,1.30
2022-07-28T19:06:36.850Z,1.05
2022-07-28T19:09:04.793Z,1.20
2022-07-28T19:11:32.518Z,1.30
2022-07-28T19:14:00.031Z,1.10
2022-07-28T19:16:27.324Z,1.20
2022-07-28T19:18:54.708Z,1.00
2022-07-28T19:21:21.937Z,1.27
2022-07-28T19:23:49.181Z,1.25
2022-07-28T19:26:16.416Z,1.13
2022-07-28T19:28:44.278Z,1.20
2022-07-28T19:31:11.530Z,1.10
2022-07-28T19:33:43.825Z,1.27
2022-07-28T19:36:13.615Z,1.40
2022-07-28T19:38:41.474Z,1.10
2022-07-28T19:41:09.760Z,1.23
2022-07-28T19:43:36.982Z,1.20
2022-07-28T19:46:05.075Z,1.20
2022-07-28T19:48:35.459Z,1.30
2022-07-28T19:51:03.554Z,1.20
2022-07-28T19:53:31.612Z,1.20
2022-07-28T19:55:59.628Z,1.33
2022-07-28T19:58:26.985Z,1.10
2022-07-28T20:00:56.542Z,1.10
2022-07-28T20:04:01.283Z,1.20
2022-07-28T20:06:12.023Z,1.10
2022-07-28T20:08:42.240Z,1.20
2022-07-28T20:11:09.618Z,1.40
2022-07-28T20:13:37.148Z,1.25
2022-07-28T20:16:04.663Z,1.20
2022-07-28T20:18:31.882Z,1.33
2022-07-28T20:21:02.740Z,1.10
2022-07-28T20:23:29.965Z,1.20
2022-07-28T20:25:57.589Z,1.40
2022-07-28T20:28:24.937Z,1.15
2022-07-28T20:30:52.173Z,1.20
2022-07-28T20:33:19.469Z,1.25
2022-07-28T20:35:46.739Z,1.25
2022-07-28T20:38:13.922Z,1.30
2022-07-28T20:40:41.125Z,1.25
2022-07-28T20:43:08.378Z,1.40
2022-07-28T20:45:35.627Z,1.20
2022-07-28T20:48:03.743Z,1.40
2022-07-28T20:50:30.924Z,1.40
2022-07-28T20:52:59.754Z,1.20
2022-07-28T20:55:37.445Z,1.30
2022-07-28T20:58:06.130Z,1.30
2022-07-28T21:00:36.724Z,1.40
2022-07-28T21:03:06.171Z,1.30
2022-07-28T21:05:36.328Z,1.13
2022-07-28T21:08:09.035Z,1.50
2022-07-28T21:10:37.107Z,1.17
2022-07-28T21:13:04.436Z,1.20
2022-07-28T21:15:32.086Z,1.20
2022-07-28T21:18:02.626Z,1.40
2022-07-28T21:20:29.963Z,1.10
2022-07-28T21:22:57.100Z,1.20
2022-07-28T21:25:24.287Z,1.40
2022-07-28T21:28:17.813Z,1.30
2022-07-28T21:30:45.741Z,1.20
2022-07-28T21:33:13.678Z,1.20
2022-07-28T21:35:49.957Z,1.48
2022-07-28T21:38:17.162Z,1.20
2022-07-28T21:40:44.366Z,1.40
2022-07-28T21:43:11.577Z,1.20
2022-07-28T21:45:38.867Z,1.65
2022-07-28T21:48:06.349Z,1.40
2022-07-28T21:50:35.824Z,1.13
2022-07-28T21:53:03.163Z,1.52
2022-07-28T21:55:30.469Z,1.48
2022-07-28T21:57:57.639Z,1.60
2022-07-28T22:00:24.897Z,1.38
2022-07-28T22:02:52.351Z,1.00
2022-07-28T22:05:19.645Z,1.40
2022-07-28T22:07:48.207Z,1.40
2022-07-28T22:10:15.621Z,1.38
2022-07-28T22:12:43.170Z,1.20
2022-07-28T22:15:10.726Z,1.70
2022-07-28T22:17:38.150Z,1.30
2022-07-28T22:20:06.063Z,1.20
2022-07-28T22:22:33.341Z,1.30
2022-07-28T22:25:00.560Z,1.50
2022-07-28T22:27:27.832Z,1.23
2022-07-28T22:29:55.060Z,1.65
2022-07-28T22:32:28.767Z,1.70
2022-07-28T22:34:58.205Z,1.73
2022-07-28T22:37:25.679Z,1.80
2022-07-28T22:39:53.110Z,1.50
2022-07-28T22:42:20.327Z,1.23
2022-07-28T22:44:48.466Z,1.20
2022-07-28T22:47:15.848Z,1.30
2022-07-28T22:49:43.061Z,1.20
2022-07-28T22:52:10.264Z,1.50
2022-07-28T22:54:38.940Z,1.30
2022-07-28T22:59:51.751Z,1.33
2022-07-28T23:02:19.113Z,1.70
2022-07-28T23:04:51.390Z,1.40
2022-07-28T23:07:19.629Z,1.33
2022-07-28T23:09:47.011Z,1.30
2022-07-28T23:12:14.352Z,1.20
2022-07-28T23:14:41.627Z,1.48
2022-07-28T23:17:08.916Z,1.30
2022-07-28T23:19:36.192Z,1.50
2022-07-28T23:22:03.666Z,1.40
2022-07-28T23:24:30.999Z,1.30
2022-07-28T23:27:00.264Z,1.50
2022-07-28T23:29:27.513Z,1.65
2022-07-28T23:31:54.784Z,1.60
2022-07-28T23:34:22.128Z,1.25
2022-07-28T23:36:49.441Z,1.45
2022-07-28T23:39:16.780Z,1.55
2022-07-28T23:41:44.016Z,1.40
2022-07-28T23:44:11.241Z,1.40
2022-07-28T23:46:38.564Z,1.45
2022-07-28T23:49:05.943Z,1.50
2022-07-28T23:51:47.559Z,1.60
2022-07-28T23:54:16.831Z,1.40
2022-07-28T23:56:44.860Z,1.40
2022-07-28T23:59:14.536Z,1.70
